createdAt,value
2023-03-29T00:01:57.901Z,51.60
2023-03-29T00:04:02.436Z,51.40
2023-03-29T00:06:04.214Z,51.39
2023-03-29T00:08:05.514Z,52.12
2023-03-29T00:10:07.613Z,51.89
2023-03-29T00:12:08.956Z,51.29
2023-03-29T00:14:10.540Z,37.86
2023-03-29T00:16:13.042Z,39.27
2023-03-29T00:18:14.371Z,43.79
2023-03-29T00:20:16.599Z,44.83
2023-03-29T00:22:17.953Z,44.01
2023-03-29T00:24:21.133Z,44.49
2023-03-29T00:26:22.728Z,44.74
2023-03-29T00:28:24.019Z,45.12
2023-03-29T00:30:25.328Z,45.31
2023-03-29T00:32:27.043Z,45.71
2023-03-29T00:34:31.410Z,45.50
2023-03-29T00:36:32.741Z,46.27
2023-03-29T00:38:34.073Z,46.24
2023-03-29T00:40:35.487Z,46.43
2023-03-29T00:42:36.801Z,46.79
2023-03-29T00:44:38.102Z,47.17
2023-03-29T00:46:39.425Z,47.59
2023-03-29T00:48:40.720Z,47.54
2023-03-29T00:50:42.027Z,47.55
2023-03-29T00:52:43.324Z,47.76
2023-03-29T00:54:44.769Z,47.77
2023-03-29T00:56:46.176Z,48.36
2023-03-29T00:58:47.555Z,48.26
2023-03-29T01:00:48.853Z,48.29
2023-03-29T01:02:51.099Z,48.51
2023-03-29T01:04:52.564Z,49.01
2023-03-29T01:06:53.956Z,49.00
2023-03-29T01:08:55.321Z,49.44
2023-03-29T01:10:56.642Z,49.87
2023-03-29T01:12:57.950Z,50.22
2023-03-29T01:14:59.241Z,50.47
2023-03-29T01:17:00.529Z,49.89
2023-03-29T01:19:02.394Z,50.28
2023-03-29T01:21:05.162Z,50.32
2023-03-29T01:23:07.291Z,51.21
2023-03-29T01:25:11.295Z,51.32
2023-03-29T01:27:13.427Z,52.01
2023-03-29T01:29:14.762Z,52.74
2023-03-29T01:31:16.080Z,52.98
2023-03-29T01:33:21.328Z,53.43
2023-03-29T01:35:22.774Z,53.74
2023-03-29T01:37:27.865Z,53.54
2023-03-29T01:39:29.237Z,53.98
2023-03-29T01:41:30.562Z,53.79
2023-03-29T01:43:31.853Z,53.85
2023-03-29T01:45:33.147Z,54.83
2023-03-29T01:47:34.452Z,54.60
2023-03-29T01:49:35.776Z,54.57
2023-03-29T01:51:37.110Z,54.84
2023-03-29T01:53:39.375Z,54.79
2023-03-29T01:55:40.712Z,54.55
2023-03-29T01:57:42.013Z,55.15
2023-03-29T01:59:43.323Z,55.13
2023-03-29T02:01:49.332Z,55.22
2023-03-29T02:03:50.950Z,55.03
2023-03-29T02:05:52.295Z,55.09
2023-03-29T02:07:53.590Z,55.29
2023-03-29T02:09:55.615Z,54.77
2023-03-29T02:11:57.312Z,55.29
2023-03-29T02:13:58.648Z,54.69
2023-03-29T02:16:03.133Z,54.41
2023-03-29T02:18:06.706Z,54.59
2023-03-29T02:20:17.310Z,54.00
2023-03-29T02:22:18.639Z,53.71
2023-03-29T02:24:20.666Z,53.77
2023-03-29T02:26:22.500Z,53.15
2023-03-29T02:28:23.850Z,53.40
2023-03-29T02:30:25.504Z,53.22
2023-03-29T02:32:27.432Z,53.40
2023-03-29T02:34:28.810Z,53.71
2023-03-29T02:36:30.123Z,54.03
2023-03-29T02:38:31.412Z,54.26
2023-03-29T02:40:33.363Z,54.54
2023-03-29T02:42:34.711Z,54.54
2023-03-29T02:44:36.568Z,54.69
2023-03-29T02:46:38.406Z,54.71
2023-03-29T02:48:39.785Z,54.45
2023-03-29T02:50:41.640Z,54.90
2023-03-29T02:52:43.072Z,54.74
2023-03-29T02:54:45.748Z,54.95
2023-03-29T02:56:47.857Z,55.57
2023-03-29T02:58:49.191Z,55.68
2023-03-29T03:00:50.524Z,55.93
2023-03-29T03:02:52.244Z,56.54
2023-03-29T03:04:53.739Z,56.26
2023-03-29T03:06:55.068Z,57.07
2023-03-29T03:08:56.736Z,56.98
2023-03-29T03:10:59.646Z,57.31
2023-03-29T03:13:02.209Z,57.14
2023-03-29T03:15:03.535Z,57.20
2023-03-29T03:17:05.042Z,57.10
2023-03-29T03:19:06.367Z,57.14
2023-03-29T03:21:07.654Z,57.10
2023-03-29T03:23:12.179Z,57.21
2023-03-29T03:25:13.472Z,57.07
2023-03-29T03:27:14.763Z,56.97
2023-03-29T03:29:16.359Z,57.08
2023-03-29T03:31:17.712Z,57.06
2023-03-29T03:33:19.247Z,56.98
2023-03-29T03:35:20.589Z,56.91
2023-03-29T03:37:22.549Z,56.88
2023-03-29T03:39:23.857Z,56.60
2023-03-29T03:41:26.319Z,56.36
2023-03-29T03:43:28.180Z,56.29
2023-03-29T03:45:29.932Z,55.94
2023-03-29T03:47:31.317Z,56.08
2023-03-29T03:49:32.988Z,55.49
2023-03-29T03:51:34.309Z,54.98
2023-03-29T03:53:35.627Z,54.86
2023-03-29T03:55:36.930Z,54.95
2023-03-29T03:57:38.291Z,55.07
2023-03-29T03:59:39.636Z,55.40
2023-03-29T04:01:43.858Z,55.54
2023-03-29T04:03:45.844Z,55.74
2023-03-29T04:05:47.329Z,54.72
2023-03-29T04:07:48.872Z,55.01
2023-03-29T04:09:50.231Z,55.28
2023-03-29T04:11:53.205Z,55.01
2023-03-29T04:13:54.751Z,55.57
2023-03-29T04:15:58.790Z,55.82
2023-03-29T04:18:02.355Z,55.51
2023-03-29T04:20:10.087Z,55.67
2023-03-29T04:22:11.399Z,56.11
2023-03-29T04:24:12.734Z,56.17
2023-03-29T04:26:14.396Z,56.37
2023-03-29T04:28:16.180Z,56.25
2023-03-29T04:30:17.511Z,56.64
2023-03-29T04:32:18.809Z,56.62
2023-03-29T04:34:20.209Z,56.57
2023-03-29T04:36:21.600Z,56.03
2023-03-29T04:38:23.421Z,57.04
2023-03-29T04:40:25.066Z,57.17
2023-03-29T04:42:26.403Z,56.73
2023-03-29T04:44:28.138Z,56.98
2023-03-29T04:46:29.476Z,57.55
2023-03-29T04:48:32.293Z,57.63
2023-03-29T04:50:33.719Z,57.56
2023-03-29T04:52:35.025Z,57.12
2023-03-29T04:54:37.342Z,57.48
2023-03-29T04:56:38.701Z,57.71
2023-03-29T04:58:40.036Z,57.49
2023-03-29T05:00:46.027Z,57.51
2023-03-29T05:02:47.419Z,56.89
2023-03-29T05:04:49.187Z,56.56
2023-03-29T05:06:50.541Z,56.34
2023-03-29T05:08:52.329Z,55.90
2023-03-29T05:10:53.703Z,55.63
2023-03-29T05:12:56.184Z,55.15
2023-03-29T05:14:57.611Z,55.43
2023-03-29T05:16:58.899Z,55.08
2023-03-29T05:19:00.238Z,54.79
2023-03-29T05:21:02.454Z,54.71
2023-03-29T05:23:03.898Z,54.80
2023-03-29T05:25:05.217Z,54.75
2023-03-29T05:27:06.516Z,54.91
2023-03-29T05:29:09.092Z,55.17
2023-03-29T05:31:10.440Z,55.10
2023-03-29T05:33:11.825Z,55.37
2023-03-29T05:35:13.187Z,55.44
2023-03-29T05:37:14.491Z,55.17
2023-03-29T05:39:15.822Z,55.22
2023-03-29T05:41:17.923Z,55.48
2023-03-29T05:43:19.268Z,55.18
2023-03-29T05:45:20.694Z,55.19
2023-03-29T05:47:22.092Z,55.45
2023-03-29T05:49:23.524Z,55.81
2023-03-29T05:51:27.982Z,55.88
2023-03-29T05:53:29.354Z,56.08
2023-03-29T05:55:30.737Z,56.11
2023-03-29T05:57:32.472Z,56.33
2023-03-29T05:59:33.917Z,56.62
2023-03-29T06:01:35.888Z,56.33
2023-03-29T06:03:38.661Z,56.46
2023-03-29T06:05:40.424Z,56.49
2023-03-29T06:07:42.389Z,56.67
2023-03-29T06:09:44.721Z,56.73
2023-03-29T06:11:46.611Z,56.72
2023-03-29T06:13:48.825Z,57.07
2023-03-29T06:15:50.116Z,57.20
2023-03-29T06:17:51.566Z,57.13
2023-03-29T06:19:53.520Z,56.64
2023-03-29T06:21:54.818Z,57.01
2023-03-29T06:23:56.142Z,57.28
2023-03-29T06:25:58.042Z,57.40
2023-03-29T06:27:59.420Z,57.31
2023-03-29T06:30:00.756Z,57.39
2023-03-29T06:32:02.202Z,57.25
2023-03-29T06:34:04.680Z,56.86
2023-03-29T06:36:06.188Z,56.86
2023-03-29T06:38:08.149Z,56.28
2023-03-29T06:40:10.084Z,56.08
2023-03-29T06:42:20.550Z,55.83
2023-03-29T06:44:22.710Z,55.88
2023-03-29T06:46:24.290Z,55.13
2023-03-29T06:48:25.972Z,54.81
2023-03-29T06:50:27.367Z,55.17
2023-03-29T06:52:28.739Z,54.73
2023-03-29T06:54:30.059Z,54.87
2023-03-29T06:56:32.166Z,54.84
2023-03-29T06:58:33.463Z,54.92
2023-03-29T07:00:37.222Z,55.15
2023-03-29T07:02:38.570Z,55.64
2023-03-29T07:04:41.858Z,55.44
2023-03-29T07:06:48.395Z,55.50
2023-03-29T07:08:52.426Z,55.26
2023-03-29T07:10:54.094Z,55.21
2023-03-29T07:12:55.442Z,55.48
2023-03-29T07:14:56.875Z,55.37
2023-03-29T07:17:01.066Z,55.77
2023-03-29T07:19:03.796Z,56.35
2023-03-29T07:21:05.418Z,56.23
2023-03-29T07:23:06.754Z,55.70
2023-03-29T07:25:12.246Z,55.96
2023-03-29T07:27:14.628Z,55.52
2023-03-29T07:29:16.219Z,55.42
2023-03-29T07:31:17.701Z,55.64
2023-03-29T07:33:19.090Z,56.33
2023-03-29T07:35:21.140Z,55.77
2023-03-29T07:37:22.479Z,55.42
2023-03-29T07:39:24.078Z,55.34
2023-03-29T07:41:25.412Z,55.51
2023-03-29T07:43:26.707Z,55.43
2023-03-29T07:45:31.006Z,55.58
2023-03-29T07:47:33.311Z,55.98
2023-03-29T07:49:34.639Z,56.16
2023-03-29T07:51:37.129Z,56.15
2023-03-29T07:53:38.514Z,56.01
2023-03-29T07:55:47.161Z,55.66
2023-03-29T07:57:48.956Z,55.42
2023-03-29T07:59:50.285Z,55.19
2023-03-29T08:01:52.012Z,54.87
2023-03-29T08:03:53.453Z,54.73
2023-03-29T08:05:54.953Z,54.25
2023-03-29T08:07:56.311Z,53.54
2023-03-29T08:09:57.663Z,53.44
2023-03-29T08:11:59.081Z,53.50
2023-03-29T08:14:00.716Z,53.20
2023-03-29T08:16:02.057Z,52.97
2023-03-29T08:18:03.422Z,52.68
2023-03-29T08:20:05.941Z,53.12
2023-03-29T08:22:07.247Z,52.51
2023-03-29T08:24:08.540Z,52.57
2023-03-29T08:26:10.297Z,52.78
2023-03-29T08:28:11.657Z,52.45
2023-03-29T08:30:14.984Z,52.48
2023-03-29T08:32:16.277Z,52.60
2023-03-29T08:34:17.573Z,52.71
2023-03-29T08:36:18.961Z,52.66
2023-03-29T08:38:21.768Z,52.88
2023-03-29T08:40:23.087Z,53.09
2023-03-29T08:42:27.169Z,53.23
2023-03-29T08:44:28.521Z,50.09
2023-03-29T08:46:35.118Z,45.64
2023-03-29T08:48:37.189Z,42.13
2023-03-29T08:50:38.696Z,40.48
2023-03-29T08:52:39.982Z,39.10
2023-03-29T08:54:41.274Z,43.30
2023-03-29T08:56:43.396Z,42.74
2023-03-29T08:58:44.727Z,42.15
2023-03-29T09:00:46.058Z,42.52
2023-03-29T09:02:47.989Z,42.87
2023-03-29T09:04:49.371Z,43.74
2023-03-29T09:06:50.758Z,44.54
2023-03-29T09:08:52.234Z,44.77
2023-03-29T09:10:53.523Z,46.17
2023-03-29T09:12:54.869Z,46.60
2023-03-29T09:14:56.195Z,47.11
2023-03-29T09:16:57.533Z,46.22
2023-03-29T09:18:58.887Z,46.69
2023-03-29T09:21:00.341Z,47.76
2023-03-29T09:23:02.213Z,47.24
2023-03-29T09:25:03.740Z,48.34
2023-03-29T09:27:05.280Z,47.03
2023-03-29T09:29:09.029Z,46.98
2023-03-29T09:31:11.412Z,47.81
2023-03-29T09:33:13.158Z,47.82
2023-03-29T09:35:18.284Z,48.26
2023-03-29T09:37:21.419Z,48.01
2023-03-29T09:39:23.000Z,48.30
2023-03-29T09:41:24.654Z,48.34
2023-03-29T09:43:27.105Z,48.94
2023-03-29T09:45:28.432Z,48.82
2023-03-29T09:47:30.211Z,48.99
2023-03-29T09:49:31.546Z,49.07
2023-03-29T09:51:32.932Z,49.53
2023-03-29T09:53:34.236Z,49.58
2023-03-29T09:55:37.168Z,49.52
2023-03-29T09:57:38.724Z,49.76
2023-03-29T09:59:40.011Z,50.07
2023-03-29T10:01:41.757Z,50.26
2023-03-29T10:03:43.256Z,50.36
2023-03-29T10:05:45.771Z,50.37
2023-03-29T10:07:47.120Z,50.76
2023-03-29T10:09:48.439Z,50.67
2023-03-29T10:11:49.832Z,50.88
2023-03-29T10:13:51.518Z,50.88
2023-03-29T10:15:52.811Z,50.74
2023-03-29T10:17:54.138Z,50.82
2023-03-29T10:19:55.739Z,51.01
2023-03-29T10:21:57.035Z,50.82
2023-03-29T10:23:59.376Z,51.23
2023-03-29T10:26:00.714Z,50.94
2023-03-29T10:28:02.019Z,51.31
2023-03-29T10:30:03.695Z,51.44
2023-03-29T10:32:05.113Z,51.54
2023-03-29T10:34:06.525Z,51.29
2023-03-29T10:36:07.893Z,51.37
2023-03-29T10:38:09.331Z,51.35
2023-03-29T10:40:10.737Z,51.31
2023-03-29T10:42:12.036Z,51.15
2023-03-29T10:44:13.361Z,51.01
2023-03-29T10:46:14.851Z,51.38
2023-03-29T10:48:16.169Z,51.58
2023-03-29T10:50:17.469Z,51.11
2023-03-29T10:52:18.840Z,51.18
2023-03-29T10:54:20.964Z,51.49
2023-03-29T10:56:23.019Z,52.01
2023-03-29T10:58:24.583Z,51.83
2023-03-29T11:00:25.919Z,51.63
2023-03-29T11:02:27.915Z,51.77
2023-03-29T11:04:29.323Z,51.80
2023-03-29T11:06:30.639Z,52.00
2023-03-29T11:08:32.088Z,51.94
2023-03-29T11:10:33.879Z,52.69
2023-03-29T11:12:35.167Z,53.10
2023-03-29T11:14:36.531Z,52.67
2023-03-29T11:16:37.988Z,52.79
2023-03-29T11:18:39.342Z,53.17
2023-03-29T11:20:40.946Z,53.13
2023-03-29T11:22:42.544Z,53.20
2023-03-29T11:24:43.845Z,53.26
2023-03-29T11:26:45.287Z,53.31
2023-03-29T11:28:46.614Z,53.38
2023-03-29T11:30:48.166Z,53.21
2023-03-29T11:32:49.642Z,53.05
2023-03-29T11:34:50.981Z,53.20
2023-03-29T11:36:52.728Z,52.54
2023-03-29T11:38:54.341Z,52.03
2023-03-29T11:40:55.647Z,51.67
2023-03-29T11:42:57.137Z,51.83
2023-03-29T11:44:58.465Z,51.73
2023-03-29T11:46:59.894Z,51.83
2023-03-29T11:49:01.569Z,51.68
2023-03-29T11:51:03.019Z,51.81
2023-03-29T11:53:04.522Z,51.79
2023-03-29T11:55:05.824Z,51.63
2023-03-29T11:57:07.143Z,51.56
2023-03-29T11:59:09.168Z,51.57
2023-03-29T12:01:10.522Z,50.91
2023-03-29T12:03:12.969Z,50.75
2023-03-29T12:05:14.452Z,51.08
2023-03-29T12:07:15.753Z,50.94
2023-03-29T12:09:17.410Z,50.68
2023-03-29T12:11:19.396Z,50.68
2023-03-29T12:13:20.779Z,50.43
2023-03-29T12:15:22.183Z,50.27
2023-03-29T12:17:23.617Z,50.40
2023-03-29T12:19:25.868Z,50.50
2023-03-29T12:21:27.232Z,50.45
2023-03-29T12:23:28.533Z,50.49
2023-03-29T12:25:29.853Z,50.18
2023-03-29T12:27:31.388Z,50.32
2023-03-29T12:29:32.685Z,50.40
2023-03-29T12:31:34.076Z,50.46
2023-03-29T12:33:35.650Z,50.20
2023-03-29T12:35:37.778Z,50.64
2023-03-29T12:37:39.190Z,50.57
2023-03-29T12:39:40.559Z,50.53
2023-03-29T12:41:44.961Z,50.70
2023-03-29T12:43:46.296Z,51.15
2023-03-29T12:45:51.086Z,50.97
2023-03-29T12:47:52.853Z,51.11
2023-03-29T12:49:54.175Z,51.25
2023-03-29T12:51:55.555Z,51.14
2023-03-29T12:53:57.156Z,51.31
2023-03-29T12:55:58.501Z,51.25
2023-03-29T12:57:59.795Z,51.77
2023-03-29T13:00:02.193Z,51.52
2023-03-29T13:02:08.574Z,51.58
2023-03-29T13:04:09.946Z,51.48
2023-03-29T13:06:11.462Z,51.65
2023-03-29T13:08:12.883Z,51.90
2023-03-29T13:10:14.215Z,51.85
2023-03-29T13:12:15.871Z,51.61
2023-03-29T13:14:17.218Z,51.72
2023-03-29T13:16:18.643Z,51.63
2023-03-29T13:18:20.031Z,51.39
2023-03-29T13:20:21.947Z,51.33
2023-03-29T13:22:24.227Z,51.63
2023-03-29T13:24:25.564Z,51.07
2023-03-29T13:26:27.222Z,51.05
2023-03-29T13:28:28.609Z,50.72
2023-03-29T13:30:29.912Z,50.67
2023-03-29T13:32:31.247Z,50.63
2023-03-29T13:34:32.680Z,50.10
2023-03-29T13:36:33.989Z,50.30
2023-03-29T13:38:36.009Z,49.98
2023-03-29T13:40:39.593Z,49.79
2023-03-29T13:42:41.914Z,49.99
2023-03-29T13:44:44.854Z,49.82
2023-03-29T13:46:46.231Z,49.96
2023-03-29T13:48:47.637Z,49.90
2023-03-29T13:50:49.008Z,50.24
2023-03-29T13:52:51.408Z,49.97
2023-03-29T13:54:52.850Z,49.57
2023-03-29T13:56:55.101Z,49.74
2023-03-29T13:58:57.283Z,49.92
2023-03-29T14:00:59.741Z,49.89
2023-03-29T14:03:02.020Z,50.13
2023-03-29T14:05:04.414Z,50.10
2023-03-29T14:07:05.972Z,50.09
2023-03-29T14:09:07.283Z,50.62
2023-03-29T14:11:09.315Z,50.69
2023-03-29T14:13:10.918Z,50.51
2023-03-29T14:15:12.411Z,50.52
2023-03-29T14:17:13.757Z,50.58
2023-03-29T14:19:15.430Z,50.82
2023-03-29T14:21:16.740Z,51.10
2023-03-29T14:23:18.044Z,50.90
2023-03-29T14:25:19.382Z,50.77
2023-03-29T14:27:20.762Z,51.01
2023-03-29T14:29:24.971Z,51.10
2023-03-29T14:31:26.962Z,50.88
2023-03-29T14:33:28.457Z,51.08
2023-03-29T14:35:30.310Z,51.17
2023-03-29T14:37:31.638Z,51.04
2023-03-29T14:39:32.933Z,51.24
2023-03-29T14:41:34.289Z,51.05
2023-03-29T14:43:35.583Z,51.40
2023-03-29T14:45:40.143Z,51.07
2023-03-29T14:47:41.684Z,51.10
2023-03-29T14:49:43.089Z,51.14
2023-03-29T14:51:44.440Z,50.87
2023-03-29T14:53:46.040Z,50.67
2023-03-29T14:55:51.697Z,50.76
2023-03-29T14:57:53.242Z,50.34
2023-03-29T14:59:54.784Z,50.80
2023-03-29T15:01:56.422Z,50.47
2023-03-29T15:03:57.990Z,50.48
2023-03-29T15:05:59.297Z,50.04
2023-03-29T15:08:00.751Z,50.48
2023-03-29T15:10:02.322Z,50.17
2023-03-29T15:12:03.839Z,50.16
2023-03-29T15:14:05.177Z,49.58
2023-03-29T15:16:08.271Z,49.67
2023-03-29T15:18:09.775Z,49.75
2023-03-29T15:20:11.306Z,49.85
2023-03-29T15:22:12.717Z,49.48
2023-03-29T15:24:14.012Z,49.30
2023-03-29T15:26:15.379Z,49.41
2023-03-29T15:28:16.713Z,49.74
2023-03-29T15:30:18.055Z,49.63
2023-03-29T15:32:19.371Z,49.87
2023-03-29T15:34:20.804Z,49.75
2023-03-29T15:36:22.184Z,50.06
2023-03-29T15:38:30.113Z,50.04
2023-03-29T15:40:31.608Z,49.94
2023-03-29T15:42:32.975Z,50.04
2023-03-29T15:44:37.425Z,50.35
2023-03-29T15:46:38.802Z,50.40
2023-03-29T15:48:40.503Z,50.44
2023-03-29T15:50:42.267Z,50.36
2023-03-29T15:52:43.557Z,50.54
2023-03-29T15:54:44.872Z,50.52
2023-03-29T15:56:52.420Z,50.74
2023-03-29T15:58:53.816Z,50.61
2023-03-29T16:00:55.674Z,50.89
2023-03-29T16:02:57.287Z,50.75
2023-03-29T16:05:00.145Z,50.68
2023-03-29T16:07:04.140Z,50.93
2023-03-29T16:09:06.983Z,50.64
2023-03-29T16:11:08.333Z,50.89
2023-03-29T16:13:09.635Z,51.01
2023-03-29T16:15:11.048Z,50.85
2023-03-29T16:17:12.403Z,50.79
2023-03-29T16:19:13.760Z,50.88
2023-03-29T16:21:15.208Z,50.70
2023-03-29T16:23:16.768Z,50.62
2023-03-29T16:25:18.215Z,50.70
2023-03-29T16:27:22.317Z,50.66
2023-03-29T16:29:23.651Z,50.15
2023-03-29T16:31:27.015Z,50.23
2023-03-29T16:33:28.502Z,50.40
2023-03-29T16:35:29.809Z,50.30
2023-03-29T16:37:31.846Z,49.97
2023-03-29T16:39:33.339Z,50.25
2023-03-29T16:41:34.674Z,49.78
2023-03-29T16:43:38.578Z,50.07
2023-03-29T16:45:40.166Z,50.10
2023-03-29T16:47:44.350Z,50.16
2023-03-29T16:49:48.630Z,49.97
2023-03-29T16:51:49.981Z,50.06
2023-03-29T16:53:54.191Z,50.00
2023-03-29T16:55:55.479Z,49.77
2023-03-29T16:57:57.513Z,49.68
2023-03-29T16:59:58.886Z,49.98
2023-03-29T17:02:00.415Z,50.21
2023-03-29T17:04:02.485Z,50.40
2023-03-29T17:06:10.020Z,50.26
2023-03-29T17:08:11.458Z,50.60
2023-03-29T17:10:12.779Z,50.63
2023-03-29T17:12:17.105Z,50.63
2023-03-29T17:14:18.519Z,50.62
2023-03-29T17:16:20.576Z,50.89
2023-03-29T17:18:22.297Z,50.73
2023-03-29T17:20:26.379Z,50.94
2023-03-29T17:22:27.684Z,50.79
2023-03-29T17:24:28.991Z,50.72
2023-03-29T17:26:30.307Z,50.77
2023-03-29T17:28:31.639Z,50.83
2023-03-29T17:30:38.738Z,50.90
2023-03-29T17:32:43.006Z,50.71
2023-03-29T17:34:44.400Z,50.48
2023-03-29T17:36:48.850Z,50.56
2023-03-29T17:38:50.619Z,50.43
2023-03-29T17:40:54.664Z,50.33
2023-03-29T17:42:56.149Z,50.18
2023-03-29T17:44:57.476Z,50.21
2023-03-29T17:46:59.920Z,50.17
2023-03-29T17:49:01.262Z,50.25
2023-03-29T17:51:02.715Z,49.88
2023-03-29T17:53:04.075Z,50.10
2023-03-29T17:55:05.979Z,49.77
2023-03-29T17:57:07.538Z,50.05
2023-03-29T17:59:11.954Z,49.90
2023-03-29T18:01:16.114Z,49.79
2023-03-29T18:03:17.523Z,49.38
2023-03-29T18:05:24.658Z,49.56
2023-03-29T18:07:26.130Z,49.67
2023-03-29T18:09:29.479Z,49.45
2023-03-29T18:11:32.225Z,49.85
2023-03-29T18:13:36.565Z,49.81
2023-03-29T18:15:40.859Z,49.54
2023-03-29T18:17:45.258Z,50.04
2023-03-29T18:19:46.631Z,50.00
2023-03-29T18:21:48.053Z,49.88
2023-03-29T18:23:54.348Z,49.88
2023-03-29T18:25:56.935Z,49.95
2023-03-29T18:27:58.257Z,49.81
2023-03-29T18:30:00.090Z,49.96
2023-03-29T18:32:02.995Z,49.97
2023-03-29T18:34:04.521Z,50.13
2023-03-29T18:36:11.935Z,50.29
2023-03-29T18:38:14.507Z,50.35
2023-03-29T18:40:19.757Z,50.27
2023-03-29T18:42:21.926Z,50.49
2023-03-29T18:44:27.384Z,50.61
2023-03-29T18:46:31.168Z,50.45
2023-03-29T18:48:41.307Z,50.72
2023-03-29T18:50:42.603Z,50.37
2023-03-29T18:52:43.974Z,50.57
2023-03-29T18:54:51.476Z,50.46
2023-03-29T18:56:52.996Z,50.59
2023-03-29T18:58:54.444Z,50.55
2023-03-29T19:00:59.682Z,50.50
2023-03-29T19:03:02.137Z,50.51
2023-03-29T19:05:03.607Z,50.43
2023-03-29T19:07:04.980Z,50.62
2023-03-29T19:09:06.367Z,50.40
2023-03-29T19:11:07.888Z,50.43
2023-03-29T19:13:09.232Z,50.23
2023-03-29T19:15:10.558Z,50.43
2023-03-29T19:17:11.952Z,50.14
2023-03-29T19:19:13.322Z,50.28
2023-03-29T19:21:14.682Z,49.88
2023-03-29T19:23:15.967Z,49.94
2023-03-29T19:25:20.036Z,49.88
2023-03-29T19:27:21.603Z,49.96
2023-03-29T19:29:22.927Z,49.88
2023-03-29T19:31:24.295Z,49.98
2023-03-29T19:33:25.685Z,49.96
2023-03-29T19:35:33.169Z,50.10
2023-03-29T19:37:34.630Z,49.93
2023-03-29T19:39:35.998Z,49.62
2023-03-29T19:41:37.870Z,49.58
2023-03-29T19:43:40.298Z,49.92
2023-03-29T19:45:41.700Z,49.61
2023-03-29T19:47:54.352Z,49.74
2023-03-29T19:49:56.072Z,49.70
2023-03-29T19:51:57.466Z,49.98
2023-03-29T19:53:58.793Z,49.83
2023-03-29T19:56:05.507Z,49.95
2023-03-29T19:58:07.187Z,49.75
2023-03-29T20:00:08.526Z,49.94
2023-03-29T20:02:10.873Z,50.12
2023-03-29T20:04:12.360Z,50.25
2023-03-29T20:06:13.684Z,49.81
2023-03-29T20:08:15.030Z,49.98
2023-03-29T20:10:16.781Z,50.20
2023-03-29T20:12:18.145Z,50.15
2023-03-29T20:14:22.150Z,50.48
2023-03-29T20:16:24.481Z,50.18
2023-03-29T20:18:25.877Z,50.20
2023-03-29T20:20:27.232Z,50.22
2023-03-29T20:22:31.168Z,50.33
2023-03-29T20:24:34.706Z,50.48
2023-03-29T20:26:36.365Z,50.31
2023-03-29T20:28:37.918Z,50.44
2023-03-29T20:30:39.301Z,49.96
2023-03-29T20:32:41.737Z,50.59
2023-03-29T20:34:43.137Z,50.44
2023-03-29T20:36:45.296Z,50.40
2023-03-29T20:38:46.644Z,50.60
2023-03-29T20:40:49.022Z,50.29
2023-03-29T20:42:50.356Z,50.47
2023-03-29T20:44:53.875Z,50.51
2023-03-29T20:47:03.317Z,50.68
2023-03-29T20:49:04.678Z,50.33
2023-03-29T20:51:11.101Z,50.20
2023-03-29T20:53:12.452Z,50.02
2023-03-29T20:55:16.729Z,50.24
2023-03-29T20:57:21.855Z,50.11
2023-03-29T20:59:23.245Z,50.03
2023-03-29T21:01:24.649Z,50.05
2023-03-29T21:03:26.171Z,50.05
2023-03-29T21:05:27.677Z,50.14
2023-03-29T21:07:30.240Z,49.61
2023-03-29T21:09:34.114Z,50.04
2023-03-29T21:11:35.522Z,49.63
2023-03-29T21:13:37.399Z,49.55
2023-03-29T21:15:40.627Z,49.54
2023-03-29T21:17:42.195Z,49.78
2023-03-29T21:19:43.539Z,49.94
2023-03-29T21:21:44.995Z,45.58
2023-03-29T21:23:46.335Z,47.22
2023-03-29T21:25:47.627Z,46.77
2023-03-29T21:27:49.256Z,46.28
2023-03-29T21:29:50.551Z,46.57
2023-03-29T21:31:51.886Z,45.90
2023-03-29T21:33:56.191Z,46.80
2023-03-29T21:35:57.571Z,46.65
2023-03-29T21:37:58.920Z,46.93
2023-03-29T21:40:00.340Z,47.43
2023-03-29T21:42:01.732Z,47.42
2023-03-29T21:44:03.536Z,47.31
2023-03-29T21:46:04.863Z,47.20
2023-03-29T21:48:06.269Z,46.70
2023-03-29T21:50:07.727Z,47.26
2023-03-29T21:52:09.085Z,47.29
2023-03-29T21:54:10.848Z,47.25
2023-03-29T21:56:12.265Z,46.93
2023-03-29T21:58:13.575Z,47.68
2023-03-29T22:00:15.559Z,47.38
2023-03-29T22:02:17.116Z,47.84
2023-03-29T22:04:33.077Z,47.89
2023-03-29T22:06:36.938Z,48.09
2023-03-29T22:08:38.962Z,49.56
2023-03-29T22:10:43.454Z,50.57
2023-03-29T22:12:44.797Z,50.18
2023-03-29T22:14:46.117Z,50.16
2023-03-29T22:16:47.582Z,49.56
2023-03-29T22:18:52.635Z,50.24
2023-03-29T22:20:53.946Z,50.64
2023-03-29T22:22:55.662Z,51.09
2023-03-29T22:24:57.007Z,50.97
2023-03-29T22:26:58.353Z,51.22
2023-03-29T22:28:59.700Z,51.26
2023-03-29T22:31:01.158Z,51.18
2023-03-29T22:33:02.679Z,51.17
2023-03-29T22:35:04.049Z,52.23
2023-03-29T22:37:05.427Z,51.47
2023-03-29T22:39:06.766Z,51.34
2023-03-29T22:41:08.307Z,50.73
2023-03-29T22:43:09.652Z,49.88
2023-03-29T22:45:11.003Z,50.83
2023-03-29T22:47:12.303Z,51.00
2023-03-29T22:49:13.676Z,51.15
2023-03-29T22:51:15.074Z,50.83
2023-03-29T22:53:16.897Z,51.16
2023-03-29T22:55:18.807Z,50.90
2023-03-29T22:57:20.165Z,50.73
2023-03-29T22:59:21.565Z,51.54
2023-03-29T23:01:22.916Z,51.74
2023-03-29T23:03:24.381Z,51.21
2023-03-29T23:05:25.710Z,51.03
2023-03-29T23:07:28.237Z,51.04
2023-03-29T23:09:29.530Z,50.75
2023-03-29T23:11:30.852Z,51.04
2023-03-29T23:13:33.449Z,51.18
2023-03-29T23:15:34.826Z,51.34
2023-03-29T23:17:37.185Z,51.38
2023-03-29T23:19:38.779Z,51.63
2023-03-29T23:21:40.224Z,51.16
2023-03-29T23:23:41.556Z,51.96
2023-03-29T23:25:42.848Z,51.54
2023-03-29T23:27:44.171Z,52.05
2023-03-29T23:29:45.474Z,51.93
2023-03-29T23:31:47.740Z,52.33
2023-03-29T23:33:49.502Z,52.46
2023-03-29T23:35:51.162Z,52.28
2023-03-29T23:37:53.043Z,52.35
2023-03-29T23:39:54.406Z,52.77
2023-03-29T23:41:56.658Z,52.85
2023-03-29T23:43:58.007Z,52.86
2023-03-29T23:45:59.631Z,53.32
2023-03-29T23:48:01.218Z,53.85
2023-03-29T23:50:02.533Z,53.86
2023-03-29T23:52:03.833Z,54.29
2023-03-29T23:54:05.137Z,54.24
2023-03-29T23:56:07.011Z,54.19
2023-03-29T23:58:09.048Z,54.34
